createdAt,value
2023-05-22T00:00:11.908Z,31.56
2023-05-22T00:01:11.887Z,31.59
2023-05-22T00:02:11.927Z,31.58
2023-05-22T00:03:11.965Z,31.59
2023-05-22T00:04:11.865Z,31.55
2023-05-22T00:05:11.973Z,31.61
2023-05-22T00:06:11.874Z,31.55
2023-05-22T00:07:11.926Z,31.59
2023-05-22T00:08:11.930Z,31.61
2023-05-22T00:09:11.918Z,31.61
2023-05-22T00:10:11.904Z,31.55
2023-05-22T00:11:11.938Z,31.58
2023-05-22T00:12:11.899Z,31.66
2023-05-22T00:13:11.906Z,31.60
2023-05-22T00:14:11.906Z,31.59
2023-05-22T00:15:11.893Z,31.63
2023-05-22T00:16:11.921Z,31.62
2023-05-22T00:17:11.980Z,31.61
2023-05-22T00:18:11.924Z,31.55
2023-05-22T00:19:12.096Z,31.60
2023-05-22T00:20:11.905Z,31.57
2023-05-22T00:21:11.943Z,31.56
2023-05-22T00:22:11.959Z,31.63
2023-05-22T00:23:13.818Z,31.60
2023-05-22T00:24:11.932Z,31.59
2023-05-22T00:25:11.981Z,31.63
2023-05-22T00:26:11.937Z,31.60
2023-05-22T00:27:11.914Z,31.61
2023-05-22T00:28:11.958Z,31.60
2023-05-22T00:29:11.944Z,31.61
2023-05-22T00:30:11.909Z,31.64
2023-05-22T00:31:11.910Z,31.61
2023-05-22T00:32:11.884Z,31.57
2023-05-22T00:33:11.848Z,31.66
2023-05-22T00:34:11.952Z,31.60
2023-05-22T00:35:11.861Z,31.64
2023-05-22T00:36:11.870Z,31.61
2023-05-22T00:37:11.900Z,31.66
2023-05-22T00:38:11.859Z,31.63
2023-05-22T00:39:11.862Z,31.64
2023-05-22T00:40:11.814Z,31.61
2023-05-22T00:41:11.797Z,31.64
2023-05-22T00:42:11.886Z,31.63
2023-05-22T00:43:11.794Z,31.62
2023-05-22T00:44:11.802Z,31.65
2023-05-22T00:45:11.822Z,31.64
2023-05-22T00:46:11.824Z,31.67
2023-05-22T00:47:11.787Z,31.67
2023-05-22T00:48:11.744Z,31.72
2023-05-22T00:49:11.749Z,31.61
2023-05-22T00:50:11.792Z,31.64
2023-05-22T00:51:11.766Z,31.64
2023-05-22T00:52:11.754Z,31.65
2023-05-22T00:53:11.802Z,31.65
2023-05-22T00:54:11.733Z,31.66
2023-05-22T00:55:11.821Z,31.68
2023-05-22T00:56:11.777Z,31.65
2023-05-22T00:57:11.741Z,31.66
2023-05-22T00:58:11.754Z,31.66
2023-05-22T00:59:11.706Z,31.68
2023-05-22T01:00:11.699Z,31.72
2023-05-22T01:01:11.720Z,31.69
2023-05-22T01:02:11.765Z,31.65
2023-05-22T01:03:11.801Z,31.68
2023-05-22T01:04:11.717Z,31.66
2023-05-22T01:05:11.699Z,31.72
2023-05-22T01:06:11.654Z,31.66
2023-05-22T01:07:11.659Z,31.63
2023-05-22T01:08:11.657Z,31.66
2023-05-22T01:09:12.305Z,31.70
2023-05-22T01:10:11.633Z,31.68
2023-05-22T01:11:11.627Z,31.69
2023-05-22T01:12:11.629Z,31.72
2023-05-22T01:13:11.623Z,31.65
2023-05-22T01:14:11.615Z,31.66
2023-05-22T01:15:11.591Z,31.70
2023-05-22T01:16:11.683Z,31.66
2023-05-22T01:17:11.605Z,31.67
2023-05-22T01:18:11.627Z,31.71
2023-05-22T01:19:11.614Z,31.71
2023-05-22T01:20:11.587Z,31.73
2023-05-22T01:21:11.570Z,31.70
2023-05-22T01:22:11.529Z,31.73
2023-05-22T01:23:11.590Z,31.68
2023-05-22T01:24:11.552Z,31.74
2023-05-22T01:25:11.540Z,31.73
2023-05-22T01:26:11.562Z,31.70
2023-05-22T01:27:11.556Z,31.73
2023-05-22T01:28:11.544Z,31.68
2023-05-22T01:29:11.533Z,31.73
2023-05-22T01:30:11.494Z,31.70
2023-05-22T01:31:11.552Z,31.68
2023-05-22T01:32:11.477Z,31.70
2023-05-22T01:33:11.577Z,31.76
2023-05-22T01:34:11.482Z,31.70
2023-05-22T01:35:11.499Z,31.74
2023-05-22T01:36:11.464Z,31.74
2023-05-22T01:37:11.466Z,31.76
2023-05-22T01:38:11.438Z,31.74
2023-05-22T01:39:11.436Z,31.76
2023-05-22T01:40:11.432Z,31.72
2023-05-22T01:41:11.414Z,31.75
2023-05-22T01:42:11.435Z,31.77
2023-05-22T01:43:11.407Z,31.74
2023-05-22T01:44:11.574Z,31.74
2023-05-22T01:45:11.801Z,31.75
2023-05-22T01:46:11.637Z,31.75
2023-05-22T01:47:11.414Z,31.75
2023-05-22T01:48:11.415Z,31.78
2023-05-22T01:49:11.472Z,31.82
2023-05-22T01:50:11.424Z,31.79
2023-05-22T01:51:11.571Z,31.77
2023-05-22T01:52:11.495Z,31.73
2023-05-22T01:53:11.564Z,31.73
2023-05-22T01:54:11.572Z,31.76
2023-05-22T01:55:11.608Z,31.79
2023-05-22T01:56:11.641Z,31.76
2023-05-22T01:57:11.647Z,31.78
2023-05-22T01:58:11.688Z,31.79
2023-05-22T01:59:11.734Z,31.78
2023-05-22T02:00:11.820Z,31.73
2023-05-22T02:01:11.847Z,31.79
2023-05-22T02:02:11.876Z,31.76
2023-05-22T02:03:12.092Z,31.83
2023-05-22T02:04:11.900Z,31.79
2023-05-22T02:05:11.997Z,31.77
2023-05-22T02:06:11.979Z,31.79
2023-05-22T02:07:12.400Z,31.77
2023-05-22T02:08:12.061Z,31.81
2023-05-22T02:09:12.106Z,31.77
2023-05-22T02:10:12.167Z,31.82
2023-05-22T02:11:12.171Z,31.79
2023-05-22T02:12:12.226Z,31.80
2023-05-22T02:13:12.296Z,31.73
2023-05-22T02:14:12.389Z,31.81
2023-05-22T02:15:12.322Z,31.76
2023-05-22T02:16:12.446Z,31.80
2023-05-22T02:17:12.424Z,31.72
2023-05-22T02:18:12.511Z,31.84
2023-05-22T02:19:12.517Z,31.80
2023-05-22T02:20:12.504Z,31.82
2023-05-22T02:21:12.608Z,31.82
2023-05-22T02:22:12.607Z,31.84
2023-05-22T02:23:12.632Z,31.83
2023-05-22T02:24:12.683Z,31.79
2023-05-22T02:25:12.697Z,31.81
2023-05-22T02:26:12.736Z,31.81
2023-05-22T02:27:12.789Z,31.84
2023-05-22T02:28:12.827Z,31.79
2023-05-22T02:29:12.821Z,31.84
2023-05-22T02:30:12.921Z,31.81
2023-05-22T02:31:12.971Z,31.80
2023-05-22T02:32:12.974Z,31.80
2023-05-22T02:33:13.028Z,31.81
2023-05-22T02:34:13.067Z,31.84
2023-05-22T02:35:13.118Z,31.81
2023-05-22T02:36:13.199Z,31.85
2023-05-22T02:37:13.191Z,31.84
2023-05-22T02:38:13.253Z,31.81
2023-05-22T02:39:13.312Z,31.81
2023-05-22T02:40:13.306Z,31.84
2023-05-22T02:41:13.353Z,31.84
2023-05-22T02:42:13.421Z,31.82
2023-05-22T02:43:13.440Z,31.82
2023-05-22T02:44:13.479Z,31.81
2023-05-22T02:45:13.514Z,31.88
2023-05-22T02:46:13.584Z,31.85
2023-05-22T02:47:13.615Z,31.82
2023-05-22T02:48:13.699Z,31.81
2023-05-22T02:49:13.720Z,31.85
2023-05-22T02:50:13.790Z,31.81
2023-05-22T02:51:13.784Z,31.85
2023-05-22T02:52:13.853Z,31.85
2023-05-22T02:53:13.844Z,31.84
2023-05-22T02:54:13.910Z,31.81
2023-05-22T02:55:13.970Z,31.83
2023-05-22T02:56:13.976Z,31.85
2023-05-22T02:57:14.036Z,31.88
2023-05-22T02:58:14.084Z,31.85
2023-05-22T02:59:14.151Z,31.86
2023-05-22T03:00:14.241Z,31.87
2023-05-22T03:01:14.235Z,31.83
2023-05-22T03:02:14.311Z,31.86
2023-05-22T03:03:14.386Z,31.89
2023-05-22T03:04:14.397Z,31.89
2023-05-22T03:05:14.400Z,31.84
2023-05-22T03:06:14.498Z,31.86
2023-05-22T03:07:14.455Z,31.89
2023-05-22T03:08:14.538Z,31.84
2023-05-22T03:09:14.536Z,31.84
2023-05-22T03:10:14.566Z,31.89
2023-05-22T03:11:14.687Z,31.86
2023-05-22T03:12:14.660Z,31.88
2023-05-22T03:13:14.748Z,31.86
2023-05-22T03:14:14.776Z,31.87
2023-05-22T03:15:14.824Z,31.89
2023-05-22T03:16:14.907Z,31.90
2023-05-22T03:17:14.927Z,31.92
2023-05-22T03:18:14.948Z,31.87
2023-05-22T03:19:15.018Z,31.84
2023-05-22T03:20:15.015Z,31.88
2023-05-22T03:21:15.051Z,31.88
2023-05-22T03:22:15.133Z,31.86
2023-05-22T03:23:15.158Z,31.87
2023-05-22T03:24:15.237Z,31.88
2023-05-22T03:25:15.245Z,31.84
2023-05-22T03:26:15.240Z,31.87
2023-05-22T03:27:15.307Z,31.88
2023-05-22T03:28:15.363Z,31.91
2023-05-22T03:29:15.447Z,31.87
2023-05-22T03:30:15.427Z,31.91
2023-05-22T03:31:15.472Z,31.88
2023-05-22T03:32:15.518Z,31.88
2023-05-22T03:33:15.599Z,31.89
2023-05-22T03:34:15.608Z,31.88
2023-05-22T03:35:15.644Z,31.91
2023-05-22T03:36:15.679Z,31.88
2023-05-22T03:37:15.730Z,31.91
2023-05-22T03:38:15.804Z,31.88
2023-05-22T03:39:15.789Z,31.88
2023-05-22T03:40:15.891Z,31.89
2023-05-22T03:41:15.880Z,31.91
2023-05-22T03:42:15.920Z,31.88
2023-05-22T03:43:15.975Z,31.88
2023-05-22T03:44:16.036Z,31.88
2023-05-22T03:45:16.048Z,31.89
2023-05-22T03:46:16.135Z,31.85
2023-05-22T03:47:16.166Z,31.89
2023-05-22T03:48:16.201Z,31.85
2023-05-22T03:49:16.232Z,31.88
2023-05-22T03:50:16.298Z,31.86
2023-05-22T03:51:18.131Z,31.86
2023-05-22T03:52:16.303Z,31.92
2023-05-22T03:53:16.302Z,31.89
2023-05-22T03:54:16.336Z,31.89
2023-05-22T03:55:16.308Z,31.85
2023-05-22T03:56:16.277Z,31.88
2023-05-22T03:57:16.251Z,31.89
2023-05-22T03:58:16.241Z,31.85
2023-05-22T03:59:16.390Z,31.86
2023-05-22T04:00:16.262Z,31.86
2023-05-22T04:01:16.196Z,31.86
2023-05-22T04:02:16.261Z,31.76
2023-05-22T04:03:16.293Z,31.74
2023-05-22T04:04:16.228Z,31.77
2023-05-22T04:05:16.211Z,31.90
2023-05-22T04:06:16.198Z,32.07
2023-05-22T04:07:16.190Z,31.99
2023-05-22T04:08:16.167Z,31.92
2023-05-22T04:09:16.176Z,31.90
2023-05-22T04:10:16.158Z,31.92
2023-05-22T04:11:16.195Z,31.95
2023-05-22T04:12:16.156Z,32.02
2023-05-22T04:13:16.106Z,31.92
2023-05-22T04:14:16.101Z,31.91
2023-05-22T04:15:16.124Z,31.94
2023-05-22T04:16:16.160Z,31.79
2023-05-22T04:17:16.182Z,31.86
2023-05-22T04:18:16.107Z,31.76
2023-05-22T04:19:16.112Z,31.73
2023-05-22T04:20:16.081Z,31.62
2023-05-22T04:21:16.068Z,31.64
2023-05-22T04:22:16.139Z,31.73
2023-05-22T04:23:16.058Z,31.68
2023-05-22T04:24:16.066Z,31.62
2023-05-22T04:25:16.025Z,31.53
2023-05-22T04:26:16.058Z,31.41
2023-05-22T04:27:16.033Z,31.33
2023-05-22T04:28:15.998Z,31.24
2023-05-22T04:29:16.038Z,31.17
2023-05-22T04:30:16.026Z,31.16
2023-05-22T04:31:16.076Z,31.16
2023-05-22T04:32:16.012Z,31.09
2023-05-22T04:33:16.015Z,31.10
2023-05-22T04:34:16.035Z,30.99
2023-05-22T04:35:16.042Z,30.88
2023-05-22T04:36:16.080Z,30.73
2023-05-22T04:37:16.075Z,30.69
2023-05-22T04:38:16.066Z,30.67
2023-05-22T04:39:16.179Z,30.56
2023-05-22T04:40:16.232Z,30.51
2023-05-22T04:41:16.223Z,30.41
2023-05-22T04:42:16.243Z,30.42
2023-05-22T04:43:16.232Z,30.40
2023-05-22T04:44:16.254Z,30.33
2023-05-22T04:45:16.283Z,30.33
2023-05-22T04:46:16.300Z,30.34
2023-05-22T04:47:16.242Z,30.28
2023-05-22T04:48:16.273Z,30.28
2023-05-22T04:49:16.262Z,30.29
2023-05-22T04:50:16.301Z,30.27
2023-05-22T04:51:16.289Z,30.30
2023-05-22T04:52:16.288Z,30.27
2023-05-22T04:53:16.311Z,30.30
2023-05-22T04:54:16.345Z,30.24
2023-05-22T04:55:16.292Z,30.30
2023-05-22T04:56:24.289Z,30.25
2023-05-22T04:57:17.358Z,30.23
2023-05-22T04:58:16.285Z,30.26
2023-05-22T04:59:16.327Z,30.25
2023-05-22T05:00:16.318Z,30.23
2023-05-22T05:01:16.270Z,30.25
2023-05-22T05:02:16.265Z,30.32
2023-05-22T05:03:16.379Z,30.30
2023-05-22T05:04:16.327Z,30.32
2023-05-22T05:05:16.231Z,30.29
2023-05-22T05:06:16.246Z,30.29
2023-05-22T05:07:16.245Z,30.30
2023-05-22T05:08:16.257Z,30.35
2023-05-22T05:09:16.216Z,30.36
2023-05-22T05:10:16.210Z,30.33
2023-05-22T05:11:16.222Z,30.37
2023-05-22T05:12:16.230Z,30.32
2023-05-22T05:13:16.199Z,30.35
2023-05-22T05:14:16.190Z,30.43
2023-05-22T05:15:16.167Z,30.36
2023-05-22T05:16:16.236Z,30.36
2023-05-22T05:17:16.162Z,30.35
2023-05-22T05:18:16.215Z,30.47
2023-05-22T05:19:16.205Z,30.46
2023-05-22T05:20:16.157Z,30.44
2023-05-22T05:21:16.158Z,30.43
2023-05-22T05:22:16.153Z,30.43
2023-05-22T05:23:16.086Z,30.47
2023-05-22T05:24:16.250Z,30.46
2023-05-22T05:25:16.120Z,30.43
2023-05-22T05:26:16.128Z,30.57
2023-05-22T05:27:16.332Z,30.43
2023-05-22T05:28:16.078Z,30.49
2023-05-22T05:29:16.084Z,30.44
2023-05-22T05:30:17.649Z,30.53
2023-05-22T05:31:16.109Z,30.58
2023-05-22T05:32:16.196Z,30.54
2023-05-22T05:33:16.190Z,30.51
2023-05-22T05:34:16.031Z,29.82
2023-05-22T05:35:16.146Z,29.05
2023-05-22T05:36:16.026Z,29.13
2023-05-22T05:37:16.021Z,28.85
2023-05-22T05:38:16.089Z,28.97
2023-05-22T05:39:16.004Z,28.84
2023-05-22T05:40:16.039Z,28.84
2023-05-22T05:41:15.986Z,28.84
2023-05-22T05:42:15.979Z,29.03
2023-05-22T05:43:16.008Z,29.22
2023-05-22T05:44:16.000Z,29.27
2023-05-22T05:45:16.024Z,29.59
2023-05-22T05:46:16.016Z,29.55
2023-05-22T05:47:15.939Z,29.75
2023-05-22T05:48:15.917Z,29.94
2023-05-22T05:49:15.940Z,30.18
2023-05-22T05:50:15.987Z,30.40
2023-05-22T05:51:16.006Z,30.62
2023-05-22T05:52:15.932Z,30.81
2023-05-22T05:53:15.876Z,31.09
2023-05-22T05:54:15.931Z,31.16
2023-05-22T05:55:15.996Z,31.35
2023-05-22T05:56:15.914Z,31.37
2023-05-22T05:57:15.872Z,31.40
2023-05-22T05:58:15.874Z,31.52
2023-05-22T05:59:15.893Z,31.66
2023-05-22T06:00:15.865Z,31.54
2023-05-22T06:01:15.870Z,31.55
2023-05-22T06:02:15.914Z,31.60
2023-05-22T06:03:15.881Z,31.55
2023-05-22T06:04:16.070Z,31.72
2023-05-22T06:05:15.892Z,31.66
2023-05-22T06:06:15.826Z,31.69
2023-05-22T06:07:15.936Z,31.65
2023-05-22T06:08:15.806Z,31.66
2023-05-22T06:09:15.803Z,31.77
2023-05-22T06:10:16.618Z,31.73
2023-05-22T06:11:15.816Z,31.71
2023-05-22T06:12:15.770Z,31.71
2023-05-22T06:13:15.780Z,31.66
2023-05-22T06:14:15.757Z,31.70
2023-05-22T06:15:15.759Z,31.78
2023-05-22T06:16:15.812Z,31.85
2023-05-22T06:17:15.740Z,31.77
2023-05-22T06:18:15.766Z,31.85
2023-05-22T06:19:15.755Z,31.73
2023-05-22T06:20:15.751Z,31.89
2023-05-22T06:21:15.724Z,31.83
2023-05-22T06:22:15.747Z,31.80
2023-05-22T06:23:15.789Z,31.79
2023-05-22T06:24:15.697Z,31.80
2023-05-22T06:25:15.691Z,31.90
2023-05-22T06:26:15.686Z,31.82
2023-05-22T06:27:15.726Z,31.89
2023-05-22T06:28:15.794Z,31.86
2023-05-22T06:29:15.790Z,31.88
2023-05-22T06:30:20.253Z,31.89
2023-05-22T06:31:16.827Z,32.00
2023-05-22T06:32:15.810Z,32.01
2023-05-22T06:33:15.834Z,32.19
2023-05-22T06:34:15.961Z,32.14
2023-05-22T06:35:15.859Z,32.17
2023-05-22T06:36:15.781Z,32.25
2023-05-22T06:37:15.732Z,32.58
2023-05-22T06:38:15.758Z,32.59
2023-05-22T06:39:15.804Z,32.47
2023-05-22T06:40:15.773Z,32.47
2023-05-22T06:41:15.737Z,32.50
2023-05-22T06:42:15.691Z,32.41
2023-05-22T06:43:15.716Z,32.33
2023-05-22T06:44:15.723Z,32.10
2023-05-22T06:45:15.815Z,32.03
2023-05-22T06:46:15.844Z,31.75
2023-05-22T06:47:15.809Z,31.66
2023-05-22T06:48:15.809Z,31.50
2023-05-22T06:49:15.862Z,31.22
2023-05-22T06:50:15.872Z,31.06
2023-05-22T06:51:15.912Z,30.99
2023-05-22T06:52:15.955Z,30.97
2023-05-22T06:53:16.009Z,31.00
2023-05-22T06:54:16.004Z,30.89
2023-05-22T06:55:16.110Z,30.86
2023-05-22T06:56:16.108Z,30.75
2023-05-22T06:57:16.135Z,30.66
2023-05-22T06:58:16.186Z,30.60
2023-05-22T06:59:16.206Z,30.60
2023-05-22T07:00:16.258Z,30.47
2023-05-22T07:01:16.360Z,30.50
2023-05-22T07:02:16.328Z,30.30
2023-05-22T07:03:16.333Z,30.40
2023-05-22T07:04:16.390Z,30.34
2023-05-22T07:05:16.374Z,30.40
2023-05-22T07:06:16.426Z,30.46
2023-05-22T07:07:16.390Z,30.64
2023-05-22T07:08:16.406Z,30.76
2023-05-22T07:09:16.398Z,30.82
2023-05-22T07:10:16.440Z,31.20
2023-05-22T07:11:16.493Z,31.11
2023-05-22T07:12:16.503Z,31.32
2023-05-22T07:13:16.466Z,31.29
2023-05-22T07:14:16.470Z,31.41
2023-05-22T07:15:16.536Z,31.44
2023-05-22T07:16:16.569Z,31.55
2023-05-22T07:17:16.584Z,31.63
2023-05-22T07:18:16.645Z,31.67
2023-05-22T07:19:16.799Z,31.80
2023-05-22T07:20:16.781Z,31.80
2023-05-22T07:21:16.815Z,31.87
2023-05-22T07:22:16.880Z,31.88
2023-05-22T07:23:16.937Z,31.84
2023-05-22T07:24:16.977Z,31.74
2023-05-22T07:25:17.043Z,31.74
2023-05-22T07:26:17.102Z,31.76
2023-05-22T07:27:17.345Z,31.78
2023-05-22T07:28:17.227Z,31.89
2023-05-22T07:29:17.262Z,31.93
2023-05-22T07:30:17.351Z,31.88
2023-05-22T07:31:17.434Z,31.90
2023-05-22T07:32:17.502Z,32.16
2023-05-22T07:33:17.490Z,32.33
2023-05-22T07:34:17.557Z,32.41
2023-05-22T07:35:17.586Z,32.57
2023-05-22T07:36:17.670Z,32.76
2023-05-22T07:37:17.693Z,32.50
2023-05-22T07:38:17.695Z,32.65
2023-05-22T07:39:17.802Z,32.57
2023-05-22T07:40:17.764Z,32.55
2023-05-22T07:41:17.850Z,32.40
2023-05-22T07:42:17.968Z,32.32
2023-05-22T07:43:18.062Z,32.47
2023-05-22T07:44:17.976Z,32.50
2023-05-22T07:45:18.061Z,32.44
2023-05-22T07:46:18.125Z,32.49
2023-05-22T07:47:18.100Z,32.42
2023-05-22T07:48:18.219Z,32.41
2023-05-22T07:49:18.170Z,32.42
2023-05-22T07:50:18.231Z,32.55
2023-05-22T07:51:18.315Z,32.54
2023-05-22T07:52:18.322Z,32.42
2023-05-22T07:53:18.329Z,32.76
2023-05-22T07:54:18.474Z,32.83
2023-05-22T07:55:18.398Z,32.91
2023-05-22T07:56:18.423Z,32.75
2023-05-22T07:57:18.417Z,32.84
2023-05-22T07:58:18.436Z,32.80
2023-05-22T07:59:18.436Z,32.91
2023-05-22T08:00:18.494Z,32.61
2023-05-22T08:01:18.475Z,32.64
2023-05-22T08:02:18.516Z,32.63
2023-05-22T08:03:19.523Z,32.61
2023-05-22T08:04:18.643Z,32.65
2023-05-22T08:05:18.546Z,32.57
2023-05-22T08:06:18.540Z,32.44
2023-05-22T08:07:18.514Z,32.51
2023-05-22T08:08:18.543Z,32.53
2023-05-22T08:09:18.519Z,32.46
2023-05-22T08:10:18.508Z,32.42
2023-05-22T08:11:18.535Z,32.40
2023-05-22T08:12:18.551Z,32.32
2023-05-22T08:13:18.560Z,32.24
2023-05-22T08:14:18.542Z,32.27
2023-05-22T08:15:18.552Z,32.31
2023-05-22T08:16:18.559Z,32.20
2023-05-22T08:17:18.550Z,32.11
2023-05-22T08:18:18.502Z,32.12
2023-05-22T08:19:18.617Z,31.92
2023-05-22T08:20:18.755Z,31.85
2023-05-22T08:21:18.596Z,31.95
2023-05-22T08:22:18.653Z,31.81
2023-05-22T08:23:18.714Z,31.72
2023-05-22T08:24:18.778Z,31.65
2023-05-22T08:25:18.767Z,31.57
2023-05-22T08:26:18.768Z,31.17
2023-05-22T08:27:18.810Z,30.83
2023-05-22T08:28:18.858Z,30.75
2023-05-22T08:29:18.894Z,30.53
2023-05-22T08:30:19.315Z,30.51
2023-05-22T08:31:19.611Z,30.27
2023-05-22T08:32:19.040Z,30.11
2023-05-22T08:33:19.089Z,29.94
2023-05-22T08:34:19.124Z,29.85
2023-05-22T08:35:19.201Z,29.76
2023-05-22T08:36:19.275Z,29.75
2023-05-22T08:37:19.312Z,29.66
2023-05-22T08:38:19.403Z,29.48
2023-05-22T08:39:19.526Z,29.42
2023-05-22T08:40:19.682Z,29.27
2023-05-22T08:41:19.492Z,29.34
2023-05-22T08:42:19.492Z,29.33
2023-05-22T08:43:19.511Z,29.48
2023-05-22T08:44:19.512Z,29.80
2023-05-22T08:45:19.523Z,29.73
2023-05-22T08:46:19.616Z,29.89
2023-05-22T08:47:19.750Z,30.00
2023-05-22T08:48:19.656Z,29.91
2023-05-22T08:49:20.402Z,30.03
2023-05-22T08:50:19.757Z,30.00
2023-05-22T08:51:19.791Z,29.97
2023-05-22T08:52:19.865Z,29.92
2023-05-22T08:53:19.940Z,29.92
2023-05-22T08:54:20.003Z,29.99
2023-05-22T08:55:20.056Z,30.10
2023-05-22T08:56:20.131Z,29.95
2023-05-22T08:57:20.129Z,29.88
2023-05-22T08:58:20.213Z,30.02
2023-05-22T08:59:20.287Z,30.03
2023-05-22T09:00:20.334Z,30.08
2023-05-22T09:01:20.448Z,30.26
2023-05-22T09:02:20.402Z,30.12
2023-05-22T09:03:20.649Z,30.20
2023-05-22T09:04:20.537Z,30.10
2023-05-22T09:05:20.534Z,30.08
2023-05-22T09:06:20.569Z,30.16
2023-05-22T09:07:20.650Z,30.01
2023-05-22T09:08:21.324Z,30.08
2023-05-22T09:09:20.681Z,30.13
2023-05-22T09:10:20.707Z,30.30
2023-05-22T09:11:20.733Z,30.12
2023-05-22T09:12:20.792Z,30.10
2023-05-22T09:13:20.800Z,30.35
2023-05-22T09:14:20.798Z,30.07
2023-05-22T09:15:20.869Z,30.04
2023-05-22T09:16:20.925Z,30.07
2023-05-22T09:17:20.942Z,30.10
2023-05-22T09:18:20.935Z,30.13
2023-05-22T09:19:21.072Z,30.17
2023-05-22T09:20:20.939Z,30.21
2023-05-22T09:21:29.562Z,30.29
2023-05-22T09:22:24.194Z,30.33
2023-05-22T09:23:20.981Z,30.24
2023-05-22T09:24:20.928Z,30.43
2023-05-22T09:25:20.939Z,30.21
2023-05-22T09:26:20.942Z,30.15
2023-05-22T09:27:20.949Z,30.08
2023-05-22T09:28:20.966Z,30.12
2023-05-22T09:29:21.115Z,30.26
2023-05-22T09:30:20.928Z,29.99
2023-05-22T09:31:20.943Z,30.07
2023-05-22T09:32:20.936Z,29.96
2023-05-22T09:33:20.920Z,30.14
2023-05-22T09:34:21.541Z,29.22
2023-05-22T09:35:20.917Z,27.75
2023-05-22T09:36:20.907Z,26.95
2023-05-22T09:37:20.926Z,26.88
2023-05-22T09:38:20.860Z,26.89
2023-05-22T09:39:20.872Z,26.39
2023-05-22T09:40:20.888Z,25.55
2023-05-22T09:41:20.903Z,26.10
2023-05-22T09:42:20.828Z,26.36
2023-05-22T09:43:20.831Z,26.60
2023-05-22T09:44:20.819Z,26.84
2023-05-22T09:45:20.811Z,27.11
2023-05-22T09:46:20.835Z,27.13
2023-05-22T09:47:20.850Z,27.13
2023-05-22T09:48:20.762Z,27.19
2023-05-22T09:49:20.767Z,27.38
2023-05-22T09:50:20.810Z,27.30
2023-05-22T09:51:20.797Z,27.14
2023-05-22T09:52:20.765Z,27.09
2023-05-22T09:53:20.785Z,27.26
2023-05-22T09:54:20.791Z,27.39
2023-05-22T09:55:20.781Z,27.25
2023-05-22T09:56:30.821Z,27.17
2023-05-22T09:57:21.769Z,27.38
2023-05-22T09:58:20.730Z,27.35
2023-05-22T09:59:20.701Z,27.56
2023-05-22T10:00:20.748Z,27.41
2023-05-22T10:01:20.752Z,27.41
2023-05-22T10:02:20.732Z,27.51
2023-05-22T10:03:20.731Z,27.38
2023-05-22T10:04:20.712Z,27.53
2023-05-22T10:05:20.716Z,27.36
2023-05-22T10:06:20.705Z,27.20
2023-05-22T10:07:20.740Z,27.44
2023-05-22T10:08:20.660Z,27.45
2023-05-22T10:09:20.683Z,27.53
2023-05-22T10:10:20.712Z,27.65
2023-05-22T10:11:20.689Z,27.71
2023-05-22T10:12:20.649Z,27.73
2023-05-22T10:13:20.622Z,27.90
2023-05-22T10:14:20.641Z,27.87
2023-05-22T10:15:21.134Z,27.76
2023-05-22T10:16:20.694Z,27.98
2023-05-22T10:17:20.684Z,27.97
2023-05-22T10:18:20.691Z,28.29
2023-05-22T10:19:20.856Z,28.20
2023-05-22T10:20:20.844Z,28.30
2023-05-22T10:21:20.806Z,28.36
2023-05-22T10:22:20.898Z,28.37
2023-05-22T10:23:20.957Z,28.36
2023-05-22T10:24:20.991Z,28.56
2023-05-22T10:25:21.036Z,28.45
2023-05-22T10:26:21.105Z,28.74
2023-05-22T10:27:21.112Z,29.25
2023-05-22T10:28:21.113Z,31.05
2023-05-22T10:29:21.143Z,30.76
2023-05-22T10:30:21.137Z,26.81
2023-05-22T10:31:21.147Z,25.93
2023-05-22T10:32:21.172Z,24.81
2023-05-22T10:33:21.316Z,25.14
2023-05-22T10:34:21.147Z,25.54
2023-05-22T10:35:21.208Z,25.50
2023-05-22T10:36:21.213Z,25.56
2023-05-22T10:37:21.839Z,25.59
2023-05-22T10:38:21.224Z,25.08
2023-05-22T10:39:21.336Z,25.08
2023-05-22T10:40:21.273Z,25.20
2023-05-22T10:41:21.263Z,25.29
2023-05-22T10:42:21.315Z,25.22
2023-05-22T10:43:21.323Z,25.12
2023-05-22T10:44:21.338Z,25.38
2023-05-22T10:45:21.378Z,25.09
2023-05-22T10:46:21.407Z,24.55
2023-05-22T10:47:21.397Z,24.11
2023-05-22T10:48:21.410Z,24.20
2023-05-22T10:49:21.424Z,24.21
2023-05-22T10:50:21.460Z,24.08
2023-05-22T10:51:21.489Z,24.29
2023-05-22T10:52:21.444Z,24.12
2023-05-22T10:53:21.509Z,24.12
2023-05-22T10:54:21.493Z,24.40
2023-05-22T10:55:21.634Z,24.55
2023-05-22T10:56:24.439Z,24.52
2023-05-22T10:57:21.535Z,24.69
2023-05-22T10:58:21.516Z,24.84
2023-05-22T10:59:21.535Z,25.04
2023-05-22T11:00:21.502Z,24.99
2023-05-22T11:01:21.518Z,24.85
2023-05-22T11:02:21.644Z,24.63
2023-05-22T11:03:21.535Z,24.57
2023-05-22T11:04:21.509Z,24.84
2023-05-22T11:05:21.440Z,25.16
2023-05-22T11:06:21.474Z,24.82
2023-05-22T11:07:21.482Z,25.11
2023-05-22T11:08:21.426Z,25.16
2023-05-22T11:09:21.439Z,24.91
2023-05-22T11:10:21.440Z,25.04
2023-05-22T11:11:21.507Z,24.97
2023-05-22T11:12:21.456Z,25.13
2023-05-22T11:13:21.425Z,25.19
2023-05-22T11:14:21.393Z,25.28
2023-05-22T11:15:21.408Z,25.52
2023-05-22T11:16:21.410Z,25.61
2023-05-22T11:17:21.402Z,25.81
2023-05-22T11:18:21.453Z,26.01
2023-05-22T11:19:23.827Z,26.26
2023-05-22T11:20:21.417Z,26.28
2023-05-22T11:21:21.379Z,26.43
2023-05-22T11:22:21.393Z,26.49
2023-05-22T11:23:21.345Z,26.39
2023-05-22T11:24:21.336Z,26.29
2023-05-22T11:25:21.335Z,26.17
2023-05-22T11:26:21.425Z,26.04
2023-05-22T11:27:21.777Z,26.03
2023-05-22T11:28:21.340Z,25.90
2023-05-22T11:29:21.324Z,25.82
2023-05-22T11:30:21.334Z,25.77
2023-05-22T11:31:21.434Z,25.65
2023-05-22T11:32:21.275Z,25.63
2023-05-22T11:33:21.350Z,25.63
2023-05-22T11:34:21.294Z,25.57
2023-05-22T11:35:21.388Z,25.59
2023-05-22T11:36:21.281Z,25.47
2023-05-22T11:37:21.294Z,25.45
2023-05-22T11:38:21.292Z,25.42
2023-05-22T11:39:21.262Z,25.38
2023-05-22T11:40:21.276Z,25.35
2023-05-22T11:41:21.259Z,25.33
2023-05-22T11:42:21.237Z,25.25
2023-05-22T11:43:21.348Z,25.24
2023-05-22T11:44:21.234Z,25.19
2023-05-22T11:45:21.239Z,25.18
2023-05-22T11:46:21.291Z,25.15
2023-05-22T11:47:21.189Z,25.18
2023-05-22T11:48:21.189Z,25.09
2023-05-22T11:49:21.208Z,25.07
2023-05-22T11:51:21.174Z,24.99
2023-05-22T11:52:21.149Z,24.93
2023-05-22T11:53:21.215Z,24.90
2023-05-22T11:54:21.132Z,24.82
2023-05-22T11:55:21.159Z,24.89
2023-05-22T11:56:21.139Z,24.90
2023-05-22T11:57:21.147Z,24.89
2023-05-22T11:58:21.158Z,24.82
2023-05-22T11:59:21.261Z,24.78
2023-05-22T12:00:21.144Z,24.81
2023-05-22T12:01:21.086Z,24.72
2023-05-22T12:02:21.122Z,24.69
2023-05-22T12:03:21.209Z,24.68
2023-05-22T12:04:21.152Z,24.66
2023-05-22T12:05:21.109Z,24.66
2023-05-22T12:06:21.135Z,24.62
2023-05-22T12:07:21.115Z,24.69
2023-05-22T12:08:21.076Z,24.80
2023-05-22T12:09:21.074Z,24.72
2023-05-22T12:10:21.054Z,24.68
2023-05-22T12:11:21.042Z,24.78
2023-05-22T12:12:22.331Z,24.71
2023-05-22T12:13:21.038Z,24.70
2023-05-22T12:14:21.015Z,24.79
2023-05-22T12:15:21.125Z,24.82
2023-05-22T12:16:21.020Z,24.80
2023-05-22T12:17:21.036Z,24.90
2023-05-22T12:18:20.989Z,24.87
2023-05-22T12:19:21.029Z,24.88
2023-05-22T12:20:20.976Z,24.88
2023-05-22T12:21:20.987Z,24.92
2023-05-22T12:22:23.130Z,24.88
2023-05-22T12:23:20.969Z,24.86
2023-05-22T12:24:21.013Z,24.89
2023-05-22T12:25:21.094Z,24.93
2023-05-22T12:26:21.141Z,24.96
2023-05-22T12:27:21.190Z,24.95
2023-05-22T12:28:21.265Z,24.99
2023-05-22T12:29:21.336Z,24.96
2023-05-22T12:30:21.438Z,24.95
2023-05-22T12:31:21.515Z,24.94
2023-05-22T12:32:21.545Z,25.02
2023-05-22T12:33:21.555Z,24.98
2023-05-22T12:34:21.604Z,25.05
2023-05-22T12:35:21.686Z,24.95
2023-05-22T12:36:21.725Z,25.04
2023-05-22T12:37:21.764Z,25.05
2023-05-22T12:38:21.837Z,25.07
2023-05-22T12:39:21.868Z,25.08
2023-05-22T12:40:21.929Z,25.05
2023-05-22T12:41:21.971Z,25.10
2023-05-22T12:42:22.060Z,25.16
2023-05-22T12:43:22.062Z,25.13
2023-05-22T12:44:22.148Z,25.14
2023-05-22T12:45:22.145Z,25.20
2023-05-22T12:46:22.249Z,25.20
2023-05-22T12:47:22.326Z,25.18
2023-05-22T12:48:22.279Z,25.20
2023-05-22T12:49:22.339Z,25.21
2023-05-22T12:50:22.416Z,25.27
2023-05-22T12:51:22.427Z,25.23
2023-05-22T12:52:22.475Z,25.23
2023-05-22T12:53:22.534Z,25.26